Time;durP1;ratioP1;P1;durP2;ratioP2;P2;SDS_P1;SDS_P2;PMS_P1;PMS_P2;Temp;Humidity;BMP_temperature;BMP_pressure;BME280_temperature;BME280_humidity;BME280_pressure;Samples;Min_cycle;Max_cycle;Signal;HPM_P1;HPM_P2
2021/01/13 00:02:24;;;;;;;9.77;1.95;;;2.40;96.30;;;;;;4995065;28;20041;-75
2021/01/13 00:04:50;;;;;;;10.15;1.88;;;2.40;96.30;;;;;;5010587;28;20682;-75
2021/01/13 00:07:15;;;;;;;13.15;1.80;;;2.50;96.20;;;;;;5008957;28;20493;-76
2021/01/13 00:09:42;;;;;;;16.17;1.60;;;2.50;96.40;;;;;;5003227;28;20023;-74
2021/01/13 00:12:08;;;;;;;12.57;1.83;;;2.40;96.60;;;;;;5001160;28;20431;-77
2021/01/13 00:14:35;;;;;;;19.77;2.28;;;2.40;96.80;;;;;;5007697;28;20062;-76
2021/01/13 00:17:00;;;;;;;10.93;2.00;;;2.50;96.70;;;;;;4992536;28;20780;-74
2021/01/13 00:19:26;;;;;;;10.80;2.10;;;2.50;96.60;;;;;;4987442;28;20026;-74
2021/01/13 00:21:54;;;;;;;14.82;2.10;;;2.50;96.80;;;;;;5000386;28;20076;-75
2021/01/13 00:24:21;;;;;;;10.85;2.47;;;2.40;96.80;;;;;;5014501;28;20160;-75
2021/01/13 00:26:47;;;;;;;9.70;1.20;;;2.40;96.70;;;;;;5009433;28;20022;-75
2021/01/13 00:29:17;;;;;;;9.10;1.30;;;2.30;96.70;;;;;;4997620;28;20025;-75
2021/01/13 00:31:43;;;;;;;9.65;2.30;;;2.30;96.60;;;;;;4996676;28;20139;-74
2021/01/13 00:34:10;;;;;;;6.53;0.90;;;2.30;96.80;;;;;;4999590;28;20633;-75
2021/01/13 00:36:36;;;;;;;6.45;0.85;;;2.30;96.40;;;;;;5012407;28;20030;-75
2021/01/13 00:39:03;;;;;;;13.50;1.30;;;2.40;96.50;;;;;;4987396;28;20486;-76
2021/01/13 00:41:28;;;;;;;9.63;0.90;;;2.30;96.40;;;;;;4992067;28;20606;-75
2021/01/13 00:43:54;;;;;;;12.70;1.80;;;2.20;96.50;;;;;;5011516;28;20057;-75
2021/01/13 00:46:21;;;;;;;6.85;1.98;;;2.20;96.70;;;;;;4987991;28;20478;-75
2021/01/13 00:48:47;;;;;;;12.80;3.40;;;2.20;97.00;;;;;;5006724;28;20469;-76
2021/01/13 00:51:14;;;;;;;13.23;3.13;;;2.20;96.90;;;;;;4999346;28;20033;-76
2021/01/13 00:53:40;;;;;;;13.80;3.25;;;2.20;96.80;;;;;;4998995;28;20113;-75
2021/01/13 00:56:09;;;;;;;7.85;2.80;;;2.20;96.90;;;;;;4991510;28;20068;-75
2021/01/13 00:58:35;;;;;;;21.30;3.85;;;2.20;97.00;;;;;;4985782;28;20864;-75
2021/01/13 01:01:02;;;;;;;10.40;2.88;;;2.20;97.10;;;;;;5007197;28;20038;-75
2021/01/13 01:03:55;;;;;;;16.05;2.80;;;2.20;96.90;;;;;;4997042;28;20022;-76
2021/01/13 01:06:21;;;;;;;20.42;3.25;;;2.20;97.20;;;;;;5013893;28;20037;-75
2021/01/13 01:08:47;;;;;;;11.85;2.50;;;2.20;96.90;;;;;;4987046;28;20081;-76
2021/01/13 01:11:19;;;;;;;14.02;2.08;;;2.20;96.90;;;;;;4996457;28;20024;-75
2021/01/13 01:13:45;;;;;;;10.25;1.42;;;2.20;96.80;;;;;;5016609;28;20021;-75
2021/01/13 01:16:11;;;;;;;14.20;1.83;;;2.20;97.00;;;;;;5014187;28;20515;-75
2021/01/13 01:18:36;;;;;;;10.00;1.42;;;2.20;97.10;;;;;;4992148;28;20029;-76
2021/01/13 01:21:02;;;;;;;8.40;1.65;;;2.20;97.00;;;;;;5009153;28;20037;-75
2021/01/13 01:23:28;;;;;;;6.72;1.30;;;2.20;97.10;;;;;;5004610;28;20041;-76
2021/01/13 01:25:53;;;;;;;7.75;1.23;;;2.20;96.90;;;;;;5003737;28;20498;-75
2021/01/13 01:28:19;;;;;;;11.95;1.50;;;2.20;96.90;;;;;;5001746;28;20026;-76
2021/01/13 01:30:45;;;;;;;11.80;1.20;;;2.20;97.00;;;;;;4987197;28;20057;-77
2021/01/13 01:33:10;;;;;;;9.10;1.08;;;2.30;97.00;;;;;;5002242;28;20354;-75
2021/01/13 01:35:36;;;;;;;8.95;1.30;;;2.30;96.90;;;;;;5005388;28;20024;-76
2021/01/13 01:38:03;;;;;;;10.15;1.00;;;2.30;97.00;;;;;;5019671;28;20081;-75
2021/01/13 01:40:28;;;;;;;6.72;1.00;;;2.30;96.80;;;;;;4987872;28;20057;-77
2021/01/13 01:42:55;;;;;;;8.23;1.13;;;2.30;96.40;;;;;;4989294;28;20116;-76
2021/01/13 01:45:27;;;;;;;8.77;1.27;;;2.30;96.30;;;;;;4998858;28;20059;-76
2021/01/13 01:48:01;;;;;;;7.55;0.98;;;2.30;96.40;;;;;;5000478;28;20041;-75
2021/01/13 01:50:38;;;;;;;5.53;1.00;;;2.30;96.40;;;;;;5010301;28;20033;-76
2021/01/13 01:53:13;;;;;;;10.82;0.82;;;2.40;96.30;;;;;;4999339;28;20025;-76
2021/01/13 01:56:05;;;;;;;6.07;0.95;;;2.40;95.90;;;;;;5030381;28;20029;-75
2021/01/13 01:58:34;;;;;;;6.70;1.10;;;2.40;96.10;;;;;;5009217;28;20030;-75
2021/01/13 02:01:02;;;;;;;10.13;1.08;;;2.40;96.30;;;;;;4999847;28;20018;-76
2021/01/13 02:03:38;;;;;;;7.97;0.75;;;2.40;96.50;;;;;;4997894;28;20125;-75
2021/01/13 02:06:07;;;;;;;6.07;0.93;;;2.40;96.00;;;;;;5010344;28;20028;-75
2021/01/13 02:08:40;;;;;;;15.13;1.10;;;2.40;96.10;;;;;;5009528;28;20049;-75
2021/01/13 02:11:15;;;;;;;8.43;1.45;;;2.30;96.10;;;;;;5015234;28;20026;-76
2021/01/13 02:13:41;;;;;;;11.95;1.20;;;2.30;96.40;;;;;;5004096;28;20029;-75
2021/01/13 02:16:09;;;;;;;10.50;1.80;;;2.20;96.40;;;;;;5015793;28;20026;-76
2021/01/13 02:18:36;;;;;;;9.65;0.88;;;2.20;96.50;;;;;;5005020;28;20040;-76
2021/01/13 02:21:03;;;;;;;16.83;2.17;;;2.20;96.80;;;;;;4999573;28;20026;-75
2021/01/13 02:23:34;;;;;;;6.28;1.00;;;2.20;96.70;;;;;;5014676;28;20053;-76
2021/01/13 02:26:37;;;;;;;14.10;1.80;;;2.20;96.60;;;;;;5008738;28;20047;-77
2021/01/13 02:29:15;;;;;;;11.02;1.40;;;2.20;96.80;;;;;;5005868;28;20484;-76
2021/01/13 02:31:49;;;;;;;12.20;1.77;;;2.20;96.60;;;;;;4986418;28;20101;-77
2021/01/13 02:34:25;;;;;;;12.73;1.77;;;2.20;96.90;;;;;;5001972;28;20034;-75
2021/01/13 02:37:03;;;;;;;12.25;1.50;;;2.20;96.80;;;;;;4988727;28;20605;-75
2021/01/13 02:39:33;;;;;;;14.05;1.73;;;2.20;96.90;;;;;;4993653;28;20025;-76
2021/01/13 02:42:00;;;;;;;12.23;1.20;;;2.30;96.90;;;;;;4996339;28;20525;-75
2021/01/13 02:44:30;;;;;;;12.65;1.45;;;2.40;96.40;;;;;;4990609;28;20053;-74
2021/01/13 02:46:55;;;;;;;8.07;1.77;;;2.30;96.60;;;;;;5001538;28;20022;-76
2021/01/13 02:49:37;;;;;;;15.65;2.08;;;2.30;96.70;;;;;;4988892;28;20048;-75
2021/01/13 02:52:11;;;;;;;;;;;2.20;96.90;;;;;;4993303;28;20205;-75
2021/01/13 02:54:41;;;;;;;15.77;1.65;;;2.20;96.90;;;;;;4995538;28;19905;-75
2021/01/13 02:57:14;;;;;;;14.95;1.70;;;2.20;97.00;;;;;;5008361;28;20053;-76
2021/01/13 02:59:44;;;;;;;7.75;1.38;;;2.20;97.20;;;;;;4992378;28;20096;-75
2021/01/13 03:02:10;;;;;;;16.92;2.05;;;2.20;97.20;;;;;;4994635;28;20025;-75
2021/01/13 03:04:40;;;;;;;10.43;1.48;;;2.30;97.10;;;;;;4994321;28;20371;-75
2021/01/13 03:07:22;;;;;;;10.23;1.50;;;2.30;97.10;;;;;;4997381;28;20032;-75
2021/01/13 03:09:49;;;;;;;9.75;1.38;;;2.30;96.90;;;;;;5000028;28;20122;-76
2021/01/13 03:12:28;;;;;;;16.75;2.17;;;2.30;96.90;;;;;;4998097;28;20477;-76
2021/01/13 03:14:55;;;;;;;8.43;1.90;;;2.30;96.90;;;;;;4992607;28;20054;-76
2021/01/13 03:17:50;;;;;;;10.23;1.48;;;2.30;96.90;;;;;;5004426;28;20033;-76
2021/01/13 03:20:30;;;;;;;14.77;1.75;;;2.30;97.00;;;;;;4997774;28;20105;-76
2021/01/13 03:23:25;;;;;;;12.50;1.50;;;2.20;97.10;;;;;;5000066;28;20559;-76
2021/01/13 03:25:53;;;;;;;14.25;1.85;;;2.30;97.10;;;;;;4978706;28;20038;-75
2021/01/13 03:28:23;;;;;;;13.43;1.50;;;2.30;97.20;;;;;;5007444;28;20167;-75
2021/01/13 03:30:50;;;;;;;14.00;1.67;;;2.30;97.20;;;;;;4994782;28;20057;-76
2021/01/13 03:33:20;;;;;;;13.95;1.63;;;2.30;97.10;;;;;;5001747;28;20018;-76
2021/01/13 03:36:00;;;;;;;12.10;1.40;;;2.30;96.80;;;;;;5028169;22;20033;-74
2021/01/13 03:38:31;;;;;;;12.73;1.60;;;2.30;97.00;;;;;;5003387;28;20068;-75
2021/01/13 03:41:05;;;;;;;20.77;1.88;;;2.30;96.90;;;;;;5038821;28;20032;-75
2021/01/13 03:43:40;;;;;;;14.00;1.67;;;2.30;97.00;;;;;;5004090;28;20017;-75
2021/01/13 03:46:09;;;;;;;15.77;1.70;;;2.40;96.80;;;;;;5020096;28;20057;-75
2021/01/13 03:48:53;;;;;;;15.38;2.38;;;2.30;96.90;;;;;;5017472;28;20122;-75
2021/01/13 03:51:25;;;;;;;14.18;2.88;;;2.30;97.00;;;;;;5013927;28;20489;-75
2021/01/13 03:53:52;;;;;;;11.93;2.03;;;2.20;97.10;;;;;;4999546;28;20033;-75
2021/01/13 03:56:27;;;;;;;11.23;1.92;;;2.20;97.30;;;;;;5019416;28;20111;-74
2021/01/13 03:58:56;;;;;;;11.68;1.67;;;2.20;97.10;;;;;;5017061;28;20037;-74
2021/01/13 04:01:22;;;;;;;16.98;1.80;;;2.20;97.30;;;;;;5015832;28;20033;-74
2021/01/13 04:04:05;;;;;;;12.65;1.73;;;2.20;97.30;;;;;;5000998;28;20036;-75
2021/01/13 04:06:42;;;;;;;20.65;2.50;;;2.20;97.30;;;;;;5031879;28;20520;-75
2021/01/13 04:09:11;;;;;;;13.05;2.03;;;2.30;97.30;;;;;;5000701;28;20072;-75
2021/01/13 04:11:37;;;;;;;13.70;2.42;;;2.20;97.30;;;;;;5017803;28;20473;-75
2021/01/13 04:14:04;;;;;;;15.55;2.10;;;2.20;97.20;;;;;;5019093;28;20397;-75
2021/01/13 04:16:37;;;;;;;11.77;2.63;;;2.20;97.30;;;;;;5014455;28;20789;-75
2021/01/13 04:19:07;;;;;;;16.83;2.40;;;2.20;97.00;;;;;;4999463;28;20025;-74
2021/01/13 04:21:33;;;;;;;8.27;2.15;;;2.20;97.30;;;;;;5015638;28;20042;-75
2021/01/13 04:24:00;;;;;;;6.30;1.50;;;2.10;97.20;;;;;;4999341;28;20449;-75
2021/01/13 04:26:27;;;;;;;9.55;1.30;;;2.10;97.40;;;;;;4997929;28;20512;-76
2021/01/13 04:28:53;;;;;;;16.75;1.80;;;2.10;97.50;;;;;;5032511;28;20091;-75
2021/01/13 04:31:19;;;;;;;5.28;1.48;;;2.10;97.50;;;;;;4999893;28;20038;-75
2021/01/13 04:33:46;;;;;;;8.75;1.30;;;2.10;97.30;;;;;;5017775;28;20034;-75
2021/01/13 04:36:13;;;;;;;7.57;1.15;;;2.00;97.30;;;;;;4999298;28;20026;-74
2021/01/13 04:38:39;;;;;;;7.47;1.40;;;1.90;97.20;;;;;;5002026;28;20025;-75
2021/01/13 04:41:10;;;;;;;10.85;2.45;;;1.90;97.50;;;;;;5020591;28;20348;-74
2021/01/13 04:43:54;;;;;;;;;;;1.80;97.50;;;;;;5019465;28;20076;-75
2021/01/13 04:46:37;;;;;;;10.63;1.55;;;1.80;97.60;;;;;;5034752;28;20365;-75
2021/01/13 04:49:16;;;;;;;9.98;1.80;;;1.80;97.70;;;;;;5019087;28;20034;-75
2021/01/13 04:51:45;;;;;;;10.98;2.70;;;1.80;97.80;;;;;;5003359;28;20284;-75
2021/01/13 04:54:16;;;;;;;12.98;1.80;;;1.80;97.80;;;;;;5002613;28;20048;-74
2021/01/13 04:56:45;;;;;;;15.65;1.95;;;1.90;98.00;;;;;;5033293;28;20032;-74
2021/01/13 04:59:30;;;;;;;12.30;2.58;;;1.90;98.00;;;;;;5002938;28;20018;-74
2021/01/13 05:02:11;;;;;;;18.25;2.92;;;1.90;97.90;;;;;;5001738;28;20079;-74
2021/01/13 05:04:59;;;;;;;8.88;2.13;;;2.00;97.80;;;;;;5035567;28;20033;-75
2021/01/13 05:07:39;;;;;;;11.40;2.65;;;1.90;97.80;;;;;;5001578;28;20021;-75
2021/01/13 05:10:19;;;;;;;12.80;2.50;;;1.90;97.90;;;;;;5021523;28;20033;-75
2021/01/13 05:12:49;;;;;;;16.48;2.00;;;2.00;97.80;;;;;;5022296;28;20091;-75
2021/01/13 05:15:17;;;;;;;11.35;1.83;;;2.00;97.80;;;;;;5003264;28;20017;-75
2021/01/13 05:18:00;;;;;;;10.98;2.22;;;2.00;97.80;;;;;;5019399;28;20057;-75
2021/01/13 05:20:30;;;;;;;12.75;2.47;;;2.00;97.70;;;;;;5003710;28;20096;-75
2021/01/13 05:22:57;;;;;;;19.65;2.33;;;2.00;97.80;;;;;;5019886;28;20033;-75
2021/01/13 05:25:36;;;;;;;15.45;2.40;;;2.00;97.80;;;;;;5017021;28;20037;-74
2021/01/13 05:28:15;;;;;;;8.68;1.98;;;2.00;97.90;;;;;;5015819;28;20026;-75
2021/01/13 05:30:47;;;;;;;9.50;2.13;;;2.00;98.00;;;;;;5019237;28;20076;-74
2021/01/13 05:33:16;;;;;;;12.77;2.15;;;2.00;97.90;;;;;;5024957;28;20028;-75
2021/01/13 05:35:44;;;;;;;8.75;1.77;;;2.00;98.00;;;;;;5005037;28;20034;-74
2021/01/13 05:38:35;;;;;;;11.05;2.70;;;2.10;98.00;;;;;;5001720;28;20037;-75
2021/01/13 05:41:11;;;;;;;11.95;2.45;;;2.10;98.00;;;;;;4997691;28;20048;-74
2021/01/13 05:43:46;;;;;;;15.93;2.90;;;2.10;97.90;;;;;;5021475;28;20188;-75
2021/01/13 05:46:13;;;;;;;13.57;2.67;;;2.10;98.00;;;;;;5002083;28;20091;-75
2021/01/13 05:48:40;;;;;;;5.88;1.80;;;2.10;97.90;;;;;;5032399;28;20026;-75
2021/01/13 05:51:07;;;;;;;12.18;2.25;;;2.10;97.90;;;;;;5009579;28;20037;-74
2021/01/13 05:53:33;;;;;;;12.30;2.78;;;2.10;97.90;;;;;;4999886;28;20026;-74
2021/01/13 05:56:02;;;;;;;9.95;2.42;;;2.00;97.90;;;;;;5005175;28;20029;-75
2021/01/13 05:58:29;;;;;;;14.60;3.00;;;2.10;97.90;;;;;;5014614;28;20025;-75
2021/01/13 06:00:57;;;;;;;11.05;2.80;;;2.00;97.90;;;;;;5015962;28;20033;-74
2021/01/13 06:03:28;;;;;;;12.27;3.08;;;2.00;98.00;;;;;;5016868;28;20029;-74
2021/01/13 06:05:59;;;;;;;20.02;3.53;;;2.00;97.90;;;;;;5004501;28;20032;-74
2021/01/13 06:08:27;;;;;;;11.52;2.50;;;2.00;98.00;;;;;;5034985;28;20040;-75
2021/01/13 06:11:14;;;;;;;17.30;2.67;;;2.00;98.00;;;;;;5003808;28;20034;-74
2021/01/13 06:13:41;;;;;;;16.15;2.85;;;2.00;98.00;;;;;;5018335;28;20072;-75
2021/01/13 06:16:09;;;;;;;11.93;2.67;;;2.10;98.10;;;;;;5016859;28;20022;-74
2021/01/13 06:18:38;;;;;;;9.70;3.05;;;2.10;98.10;;;;;;5037491;28;20040;-74
2021/01/13 06:21:12;;;;;;;11.98;2.75;;;2.10;98.20;;;;;;5005176;28;20040;-74
2021/01/13 06:23:46;;;;;;;11.40;2.88;;;2.10;98.10;;;;;;5034274;28;20124;-75
2021/01/13 06:26:12;;;;;;;12.15;2.72;;;2.20;98.10;;;;;;5003650;28;20538;-75
2021/01/13 06:29:26;;;;;;;12.38;2.88;;;2.20;98.10;;;;;;4998077;28;20156;-74
2021/01/13 06:32:02;;;;;;;14.57;2.90;;;2.20;98.00;;;;;;5014558;28;20433;-75
2021/01/13 06:34:32;;;;;;;9.15;2.67;;;2.20;98.10;;;;;;5020275;28;20022;-75
2021/01/13 06:37:26;;;;;;;13.25;2.50;;;2.20;97.90;;;;;;5022318;28;20026;-75
2021/01/13 06:39:55;;;;;;;12.95;3.10;;;2.20;98.00;;;;;;5013889;28;20033;-75
2021/01/13 06:42:29;;;;;;;13.35;2.88;;;2.20;98.00;;;;;;5029045;28;20040;-75
2021/01/13 06:44:55;;;;;;;12.77;2.72;;;2.20;98.10;;;;;;5014388;28;20026;-75
2021/01/13 06:47:20;;;;;;;5.63;2.45;;;2.20;98.10;;;;;;5013508;28;20099;-75
2021/01/13 06:49:50;;;;;;;10.95;2.92;;;2.20;98.20;;;;;;5015810;28;20049;-75
2021/01/13 06:52:29;;;;;;;12.68;2.72;;;2.20;98.10;;;;;;5012174;28;20021;-75
2021/01/13 06:54:58;;;;;;;12.70;2.97;;;2.20;98.00;;;;;;5000029;28;20033;-75
2021/01/13 06:57:31;;;;;;;10.27;2.53;;;2.20;98.10;;;;;;5020357;28;20036;-78
2021/01/13 07:00:00;;;;;;;8.88;2.00;;;2.30;98.00;;;;;;5035799;28;20037;-73
2021/01/13 07:02:35;;;;;;;12.43;2.00;;;2.20;98.00;;;;;;5010218;28;20037;-75
2021/01/13 07:05:02;;;;;;;9.90;2.92;;;2.20;98.00;;;;;;5011508;28;20535;-73
2021/01/13 07:07:29;;;;;;;10.77;2.20;;;2.10;98.10;;;;;;5013075;28;20435;-74
2021/01/13 07:09:55;;;;;;;8.70;2.05;;;2.20;98.10;;;;;;4997863;28;20030;-74
2021/01/13 07:12:25;;;;;;;10.30;2.13;;;2.20;98.10;;;;;;5012202;28;20417;-74
2021/01/13 07:14:53;;;;;;;9.32;2.20;;;2.20;98.10;;;;;;5012136;28;20069;-74
2021/01/13 07:17:27;;;;;;;13.15;2.47;;;2.20;98.00;;;;;;5026309;28;20125;-73
2021/01/13 07:19:54;;;;;;;9.25;2.47;;;2.20;98.00;;;;;;5025824;28;20018;-73
2021/01/13 07:22:25;;;;;;;8.68;2.17;;;2.20;98.00;;;;;;5014483;28;20501;-73
2021/01/13 07:24:52;;;;;;;13.93;2.40;;;2.30;98.10;;;;;;5013967;28;20420;-74
2021/01/13 07:27:20;;;;;;;15.98;2.63;;;2.30;98.10;;;;;;5028121;28;20139;-73
2021/01/13 07:29:47;;;;;;;10.82;4.05;;;2.30;98.10;;;;;;5014244;28;20034;-73
2021/01/13 07:32:13;;;;;;;15.80;2.42;;;2.30;98.00;;;;;;5012100;28;20466;-72
2021/01/13 07:34:41;;;;;;;11.45;2.40;;;2.30;98.00;;;;;;5013561;28;20049;-72
2021/01/13 07:37:06;;;;;;;10.05;2.10;;;2.30;98.00;;;;;;5008974;28;20076;-72
2021/01/13 07:39:58;;;;;;;14.60;2.33;;;2.30;98.00;;;;;;5018968;28;20044;-72
2021/01/13 07:42:40;;;;;;;14.68;2.63;;;2.30;98.20;;;;;;4999507;28;20497;-73
2021/01/13 07:45:18;;;;;;;10.93;2.38;;;2.30;97.90;;;;;;5013848;28;20032;-73
2021/01/13 07:47:56;;;;;;;14.02;2.83;;;2.30;97.90;;;;;;5029432;28;20134;-73
2021/01/13 07:50:23;;;;;;;14.45;3.35;;;2.30;98.00;;;;;;5029058;28;20021;-76
2021/01/13 07:52:50;;;;;;;28.83;5.47;;;2.30;97.90;;;;;;5009888;28;20018;-74
2021/01/13 07:55:21;;;;;;;14.38;4.07;;;2.20;97.90;;;;;;5011007;28;20096;-73
2021/01/13 07:57:52;;;;;;;17.25;3.55;;;2.20;98.00;;;;;;5012846;28;20114;-74
2021/01/13 08:00:37;;;;;;;16.08;3.67;;;2.20;97.90;;;;;;5004007;28;20513;-73
2021/01/13 08:03:18;;;;;;;11.23;3.15;;;2.30;98.00;;;;;;5009426;28;20030;-74
2021/01/13 08:06:08;;;;;;;13.02;2.40;;;2.30;98.00;;;;;;5029258;28;20034;-74
2021/01/13 08:08:59;;;;;;;18.67;2.83;;;2.30;97.90;;;;;;5012613;28;20099;-73
2021/01/13 08:11:45;;;;;;;;;;;2.30;97.90;;;;;;5012439;28;20141;-73
2021/01/13 08:14:49;;;;;;;14.48;2.08;;;2.20;97.80;;;;;;5018222;28;20418;-73
2021/01/13 08:17:27;;;;;;;20.42;3.00;;;2.20;97.90;;;;;;5004001;28;20041;-74
2021/01/13 08:20:22;;;;;;;14.70;2.45;;;2.20;98.00;;;;;;5016976;28;20030;-72
2021/01/13 08:23:07;;;;;;;12.75;3.63;;;2.20;98.00;;;;;;5012978;28;20057;-71
2021/01/13 08:25:36;;;;;;;8.57;1.75;;;2.20;98.00;;;;;;4995397;28;20033;-73
2021/01/13 08:28:03;;;;;;;8.55;1.65;;;2.20;98.10;;;;;;5015171;28;20034;-72
2021/01/13 08:30:30;;;;;;;18.33;2.20;;;2.30;98.00;;;;;;5015724;28;20040;-71
2021/01/13 08:32:57;;;;;;;11.68;1.50;;;2.30;98.10;;;;;;5017431;28;20855;-70
2021/01/13 08:35:34;;;;;;;6.10;1.67;;;2.30;98.10;;;;;;5014880;28;20040;-71
2021/01/13 08:38:08;;;;;;;11.48;1.58;;;2.30;98.10;;;;;;5019665;28;20025;-70
2021/01/13 08:40:36;;;;;;;10.88;2.10;;;2.30;98.10;;;;;;5004751;28;20034;-70
2021/01/13 08:43:12;;;;;;;13.50;1.48;;;2.30;98.10;;;;;;5000298;28;20033;-71
2021/01/13 08:45:48;;;;;;;7.47;1.30;;;2.40;97.80;;;;;;5034430;28;20520;-71
2021/01/13 08:48:24;;;;;;;18.23;1.60;;;2.30;97.90;;;;;;5002639;28;20493;-72
2021/01/13 08:51:04;;;;;;;5.85;1.38;;;2.30;97.80;;;;;;4996081;28;20029;-72
2021/01/13 08:53:31;;;;;;;12.02;1.98;;;2.30;97.70;;;;;;5034740;28;20117;-71
2021/01/13 08:55:57;;;;;;;11.27;1.67;;;2.20;97.80;;;;;;5012333;28;20022;-72
2021/01/13 08:58:33;;;;;;;8.18;2.20;;;2.20;97.90;;;;;;5021509;28;20049;-71
2021/01/13 09:01:05;;;;;;;14.50;1.83;;;2.20;98.00;;;;;;5037263;28;20025;-72
2021/01/13 09:03:36;;;;;;;12.10;2.00;;;2.20;98.10;;;;;;5034806;28;20060;-72
2021/01/13 09:06:17;;;;;;;;;;;2.30;98.20;;;;;;5030881;28;20038;-72
2021/01/13 09:08:46;;;;;;;16.55;2.08;;;2.30;98.10;;;;;;5024531;28;19916;-73
2021/01/13 09:11:35;;;;;;;17.20;2.30;;;2.30;98.10;;;;;;5031805;28;20030;-73
2021/01/13 09:14:19;;;;;;;9.57;1.95;;;2.40;98.10;;;;;;5014409;28;20030;-73
2021/01/13 09:16:55;;;;;;;12.80;1.77;;;2.40;98.10;;;;;;5017249;28;20509;-73
2021/01/13 09:19:30;;;;;;;6.68;1.77;;;2.40;97.90;;;;;;5017450;28;20481;-73
2021/01/13 09:22:01;;;;;;;11.25;2.22;;;2.40;97.60;;;;;;5019085;28;20067;-73
2021/01/13 09:24:31;;;;;;;;;;;2.50;97.80;;;;;;5014919;28;21471;-74
2021/01/13 09:26:58;;;;;;;20.90;2.45;;;2.50;97.90;;;;;;5036144;28;19919;-74
2021/01/13 09:29:24;;;;;;;12.38;2.58;;;2.50;98.00;;;;;;5018495;28;20040;-74
2021/01/13 09:32:15;;;;;;;15.27;2.65;;;2.60;98.00;;;;;;5017040;28;20025;-74
2021/01/13 09:34:42;;;;;;;9.00;2.33;;;2.60;97.90;;;;;;5018542;28;20113;-73
2021/01/13 09:37:08;;;;;;;7.82;2.78;;;2.60;97.90;;;;;;5018003;28;20532;-73
2021/01/13 09:39:38;;;;;;;15.30;3.35;;;2.70;97.70;;;;;;5015677;28;20175;-73
2021/01/13 09:42:09;;;;;;;14.77;5.78;;;2.70;97.80;;;;;;5016870;28;20068;-73
2021/01/13 09:44:37;;;;;;;13.80;2.13;;;2.70;97.80;;;;;;5033085;28;20566;-73
2021/01/13 09:47:24;;;;;;;16.20;2.63;;;2.80;97.70;;;;;;5015296;28;20033;-73
2021/01/13 09:49:55;;;;;;;14.43;3.17;;;2.80;97.70;;;;;;5017625;28;20034;-73
2021/01/13 09:52:21;;;;;;;16.40;2.10;;;2.80;97.70;;;;;;5015222;28;20105;-74
2021/01/13 09:54:51;;;;;;;19.35;3.63;;;2.80;97.70;;;;;;5019205;28;20148;-75
2021/01/13 09:57:18;;;;;;;18.23;2.58;;;2.80;97.50;;;;;;5014031;28;20026;-74
2021/01/13 10:00:00;;;;;;;14.27;2.22;;;2.80;97.50;;;;;;5016419;28;20044;-73
2021/01/13 10:02:27;;;;;;;20.58;2.88;;;2.80;97.70;;;;;;5017355;28;20034;-74
2021/01/13 10:04:53;;;;;;;18.30;2.38;;;2.80;97.70;;;;;;5001117;28;20519;-74
2021/01/13 10:07:23;;;;;;;16.67;2.65;;;2.80;97.90;;;;;;5030105;28;20030;-72
2021/01/13 10:09:50;;;;;;;18.50;2.67;;;2.90;98.00;;;;;;4998467;28;20030;-73
2021/01/13 10:12:17;;;;;;;16.23;1.95;;;2.90;98.00;;;;;;5016813;28;20087;-74
2021/01/13 10:14:52;;;;;;;15.43;1.98;;;3.00;98.00;;;;;;5019032;28;20033;-73
2021/01/13 10:17:25;;;;;;;18.17;2.17;;;3.00;97.60;;;;;;5015296;28;20036;-74
2021/01/13 10:19:52;;;;;;;15.27;2.20;;;3.00;97.80;;;;;;5011318;28;20181;-74
2021/01/13 10:22:23;;;;;;;14.25;2.60;;;3.10;97.70;;;;;;5032311;28;20037;-75
2021/01/13 10:24:49;;;;;;;18.20;2.15;;;3.20;97.80;;;;;;5033906;28;20057;-74
2021/01/13 10:27:20;;;;;;;13.27;1.98;;;3.20;97.90;;;;;;5035161;28;20045;-74
2021/01/13 10:29:46;;;;;;;13.65;2.05;;;3.30;97.50;;;;;;5019030;28;20044;-74
2021/01/13 10:32:14;;;;;;;17.73;2.30;;;3.40;97.10;;;;;;5015492;28;20018;-73
2021/01/13 10:34:41;;;;;;;13.32;3.78;;;3.40;97.30;;;;;;5011794;28;20036;-73
2021/01/13 10:37:06;;;;;;;26.63;4.13;;;3.40;97.40;;;;;;5011044;28;20481;-74
2021/01/13 10:39:32;;;;;;;17.20;3.00;;;3.40;97.20;;;;;;5019215;28;20025;-74
2021/01/13 10:42:06;;;;;;;24.85;2.67;;;3.40;97.20;;;;;;5008326;28;20089;-73
2021/01/13 10:44:32;;;;;;;14.10;2.30;;;3.30;97.20;;;;;;5026603;28;20030;-73
2021/01/13 10:47:08;;;;;;;19.63;6.13;;;3.30;97.30;;;;;;5030147;28;20064;-74
2021/01/13 10:49:36;;;;;;;18.98;2.83;;;3.30;97.20;;;;;;4996704;28;20105;-74
2021/01/13 10:52:18;;;;;;;17.30;3.40;;;3.30;97.30;;;;;;5019227;28;20037;-75
2021/01/13 10:54:45;;;;;;;19.08;2.28;;;3.30;97.40;;;;;;5029493;28;20057;-74
2021/01/13 10:57:13;;;;;;;19.25;2.45;;;3.40;97.50;;;;;;5011996;28;20081;-73
2021/01/13 10:59:40;;;;;;;17.65;3.38;;;3.30;97.50;;;;;;5001021;28;20036;-73
2021/01/13 11:02:07;;;;;;;14.18;2.55;;;3.40;97.70;;;;;;5013970;28;20041;-75
2021/01/13 11:04:40;;;;;;;11.57;2.50;;;3.40;97.70;;;;;;5015866;28;20103;-73
2021/01/13 11:07:10;;;;;;;23.00;3.50;;;3.40;97.60;;;;;;5027203;28;20028;-74
2021/01/13 11:09:42;;;;;;;7.70;1.90;;;3.50;97.70;;;;;;5017284;28;20037;-74
2021/01/13 11:12:10;;;;;;;19.75;2.67;;;3.50;97.60;;;;;;5032090;28;20077;-74
2021/01/13 11:14:43;;;;;;;12.85;1.88;;;3.60;97.60;;;;;;5016134;28;20049;-74
2021/01/13 11:17:11;;;;;;;19.20;2.40;;;3.70;97.30;;;;;;5015478;28;20031;-75
2021/01/13 11:19:38;;;;;;;23.50;2.80;;;3.70;97.30;;;;;;5017095;28;20066;-74
2021/01/13 11:22:05;;;;;;;18.48;2.38;;;3.70;97.30;;;;;;5030091;28;20033;-74
2021/01/13 11:24:42;;;;;;;22.67;3.35;;;3.70;97.50;;;;;;5015178;28;20519;-75
2021/01/13 11:27:14;;;;;;;17.88;2.60;;;3.70;97.30;;;;;;4995684;28;20058;-74
2021/01/13 11:29:42;;;;;;;19.77;2.38;;;3.80;97.10;;;;;;4994761;28;20038;-74
2021/01/13 11:32:15;;;;;;;18.17;3.00;;;3.80;97.10;;;;;;5011065;28;20022;-74
2021/01/13 11:34:50;;;;;;;18.70;3.13;;;3.80;97.00;;;;;;5009937;28;20649;-74
2021/01/13 11:37:59;;;;;;;15.05;2.60;;;3.90;96.80;;;;;;5011068;28;20044;-73
2021/01/13 11:40:38;;;;;;;16.10;2.28;;;3.90;96.50;;;;;;5007878;28;20030;-76
2021/01/13 11:43:48;;;;;;;17.10;2.65;;;3.90;96.60;;;;;;5010229;28;20283;-74
2021/01/13 11:46:22;;;;;;;21.35;2.65;;;4.00;97.00;;;;;;5009941;28;20041;-74
2021/01/13 11:48:55;;;;;;;17.05;1.83;;;4.10;96.90;;;;;;5015185;28;20477;-77
2021/01/13 11:51:23;;;;;;;15.90;2.45;;;4.20;96.00;;;;;;5012265;28;20374;-73
2021/01/13 11:53:50;;;;;;;18.02;1.90;;;4.20;96.50;;;;;;4995311;28;20135;-73
2021/01/13 11:56:27;;;;;;;17.45;2.72;;;4.20;96.00;;;;;;5011506;28;20029;-74
2021/01/13 11:58:53;;;;;;;12.98;1.90;;;4.20;95.90;;;;;;5016081;28;20578;-75
2021/01/13 12:01:20;;;;;;;14.38;2.25;;;4.20;95.60;;;;;;5009884;28;20038;-74
2021/01/13 12:04:03;;;;;;;14.48;2.25;;;4.20;96.00;;;;;;5013977;28;20022;-75
2021/01/13 12:06:29;;;;;;;13.68;2.17;;;4.20;96.40;;;;;;5012723;28;20064;-73
2021/01/13 12:08:55;;;;;;;13.02;2.45;;;4.20;96.30;;;;;;5015121;28;20061;-73
2021/01/13 12:11:21;;;;;;;19.77;2.63;;;4.20;96.20;;;;;;5013053;28;20041;-75
2021/01/13 12:13:48;;;;;;;17.92;2.03;;;4.20;96.30;;;;;;5009467;28;20489;-74
2021/01/13 12:16:19;;;;;;;16.52;2.72;;;4.20;96.20;;;;;;5014769;28;20153;-73
2021/01/13 12:18:47;;;;;;;13.45;1.50;;;4.20;96.40;;;;;;5030851;28;20033;-76
2021/01/13 12:21:13;;;;;;;16.73;2.28;;;4.20;96.50;;;;;;5030492;28;20497;-75
2021/01/13 12:23:40;;;;;;;15.32;2.40;;;4.20;96.20;;;;;;5033394;28;20026;-75
2021/01/13 12:26:27;;;;;;;12.48;2.00;;;4.20;95.90;;;;;;5005943;28;20061;-75
2021/01/13 12:29:05;;;;;;;13.50;2.10;;;4.30;96.50;;;;;;5029623;28;20029;-75
2021/01/13 12:31:46;;;;;;;18.52;2.03;;;4.40;95.20;;;;;;5028648;28;20026;-74
2021/01/13 12:34:21;;;;;;;17.60;2.50;;;4.40;95.70;;;;;;5014348;28;20053;-75
2021/01/13 12:36:49;;;;;;;18.48;2.42;;;4.30;95.50;;;;;;5032406;28;20516;-74
2021/01/13 12:39:29;;;;;;;21.17;2.33;;;4.30;95.70;;;;;;5034211;28;20033;-75
2021/01/13 12:41:58;;;;;;;20.02;2.35;;;4.30;95.90;;;;;;5015837;28;20033;-75
2021/01/13 12:44:24;;;;;;;14.10;2.08;;;4.30;95.90;;;;;;5013539;28;20550;-75
2021/01/13 12:46:50;;;;;;;21.88;2.42;;;4.40;95.70;;;;;;4996268;28;20030;-74
2021/01/13 12:49:16;;;;;;;17.83;2.53;;;4.30;95.00;;;;;;5027453;28;20120;-75
2021/01/13 12:51:41;;;;;;;18.50;2.65;;;4.30;95.70;;;;;;5012596;28;20030;-75
2021/01/13 12:54:07;;;;;;;21.73;2.85;;;4.40;95.80;;;;;;5013961;28;20026;-75
2021/01/13 12:56:36;;;;;;;16.30;2.17;;;4.40;95.80;;;;;;5021024;28;20037;-75
2021/01/13 12:59:03;;;;;;;20.77;2.78;;;4.40;95.10;;;;;;5023854;28;20037;-74
2021/01/13 13:01:36;;;;;;;17.20;3.50;;;4.40;95.30;;;;;;5016738;28;20061;-74
2021/01/13 13:04:02;;;;;;;17.13;2.70;;;4.30;95.40;;;;;;5024927;28;20026;-74
2021/01/13 13:06:30;;;;;;;11.38;1.67;;;4.30;95.40;;;;;;5018156;28;20075;-75
2021/01/13 13:08:57;;;;;;;4.03;0.85;;;4.30;95.30;;;;;;5018141;28;20068;-74
2021/01/13 13:11:30;;;;;;;3.15;0.30;;;4.20;95.30;;;;;;5014089;28;20034;-74
2021/01/13 13:13:58;;;;;;;1.92;0.30;;;3.90;94.20;;;;;;5017183;28;20030;-74
2021/01/13 13:16:25;;;;;;;1.67;0.68;;;3.60;94.60;;;;;;5019950;28;20120;-74